createdAt,value
2023-05-19T00:00:02.263Z,77.60
2023-05-19T00:02:39.791Z,77.97
2023-05-19T00:05:07.949Z,78.75
2023-05-19T00:07:38.315Z,78.88
2023-05-19T00:10:06.842Z,78.83
2023-05-19T00:12:34.202Z,79.02
2023-05-19T00:15:01.844Z,78.51
2023-05-19T00:17:34.573Z,78.09
2023-05-19T00:20:01.909Z,78.23
2023-05-19T00:22:31.207Z,77.82
2023-05-19T00:24:58.422Z,78.20
2023-05-19T00:27:25.465Z,78.32
2023-05-19T00:29:52.619Z,78.25
2023-05-19T00:32:19.850Z,77.95
2023-05-19T00:34:48.574Z,78.16
2023-05-19T00:37:17.669Z,77.48
2023-05-19T00:39:45.326Z,77.05
2023-05-19T00:42:12.796Z,77.74
2023-05-19T00:44:41.544Z,77.06
2023-05-19T00:47:09.335Z,77.19
2023-05-19T00:49:36.498Z,77.96
2023-05-19T00:52:06.474Z,77.53
2023-05-19T00:54:34.983Z,77.81
2023-05-19T00:57:03.697Z,77.50
2023-05-19T00:59:31.017Z,77.94
2023-05-19T01:01:58.302Z,78.51
2023-05-19T01:04:26.660Z,78.83
2023-05-19T01:06:57.078Z,79.23
2023-05-19T01:09:24.247Z,78.93
2023-05-19T01:11:51.298Z,79.39
2023-05-19T01:14:20.073Z,78.51
2023-05-19T01:16:59.706Z,78.43
2023-05-19T01:20:14.103Z,78.11
2023-05-19T01:22:56.699Z,78.31
2023-05-19T01:25:53.174Z,78.20
2023-05-19T01:28:20.326Z,78.34
2023-05-19T01:30:52.875Z,78.38
2023-05-19T01:33:21.892Z,78.76
2023-05-19T01:35:50.454Z,78.34
2023-05-19T01:38:20.770Z,78.63
2023-05-19T01:40:53.121Z,78.94
2023-05-19T01:43:24.402Z,78.61
2023-05-19T01:45:53.626Z,78.25
2023-05-19T01:48:23.372Z,78.92
2023-05-19T01:50:51.298Z,78.99
2023-05-19T01:53:18.532Z,78.67
2023-05-19T01:55:49.775Z,78.83
2023-05-19T01:58:35.280Z,78.92
2023-05-19T02:01:34.197Z,79.13
2023-05-19T02:04:13.450Z,79.72
2023-05-19T02:07:07.559Z,79.73
2023-05-19T02:09:44.868Z,79.80
2023-05-19T02:12:21.823Z,79.51
2023-05-19T02:15:06.402Z,79.19
2023-05-19T02:17:40.595Z,78.39
2023-05-19T02:20:12.150Z,78.82
2023-05-19T02:22:39.754Z,79.24
2023-05-19T02:25:08.313Z,79.86
2023-05-19T02:27:38.858Z,79.41
2023-05-19T02:30:08.522Z,79.58
2023-05-19T02:32:37.790Z,80.34
2023-05-19T02:35:05.561Z,80.83
2023-05-19T02:37:32.766Z,80.71
2023-05-19T02:39:59.852Z,80.60
2023-05-19T02:42:26.973Z,80.89
2023-05-19T02:44:55.033Z,81.28
2023-05-19T02:47:22.475Z,81.26
2023-05-19T02:49:49.562Z,80.98
2023-05-19T02:52:16.791Z,80.40
2023-05-19T02:54:44.081Z,79.49
2023-05-19T02:57:11.405Z,79.07
2023-05-19T02:59:38.579Z,79.56
2023-05-19T03:02:05.797Z,79.85
2023-05-19T03:04:33.036Z,80.21
2023-05-19T03:07:00.304Z,81.14
2023-05-19T03:09:27.453Z,81.62
2023-05-19T03:11:54.532Z,82.27
2023-05-19T03:14:24.287Z,82.42
2023-05-19T03:16:51.893Z,82.30
2023-05-19T03:19:19.385Z,83.24
2023-05-19T03:21:47.744Z,82.60
2023-05-19T03:24:15.056Z,80.65
2023-05-19T03:26:42.970Z,80.86
2023-05-19T03:29:10.252Z,80.94
2023-05-19T03:31:38.235Z,80.68
2023-05-19T03:34:05.806Z,80.54
2023-05-19T03:36:33.072Z,79.73
2023-05-19T03:39:01.224Z,78.32
2023-05-19T03:41:29.555Z,77.13
2023-05-19T03:43:56.693Z,77.74
2023-05-19T03:46:24.045Z,77.43
2023-05-19T03:48:54.554Z,77.31
2023-05-19T03:51:51.227Z,77.15
2023-05-19T03:54:26.431Z,77.36
2023-05-19T03:56:53.564Z,77.15
2023-05-19T03:59:20.827Z,77.10
2023-05-19T04:01:48.995Z,76.48
2023-05-19T04:04:16.072Z,76.03
2023-05-19T04:06:45.891Z,74.60
2023-05-19T04:09:14.805Z,73.42
2023-05-19T04:11:43.083Z,71.68
2023-05-19T04:14:10.195Z,71.05
2023-05-19T04:16:38.344Z,70.46
2023-05-19T04:19:06.013Z,69.42
2023-05-19T04:21:33.483Z,69.25
2023-05-19T04:24:00.634Z,68.80
2023-05-19T04:26:31.031Z,68.78
2023-05-19T04:28:58.355Z,68.37
2023-05-19T04:31:25.839Z,67.85
2023-05-19T04:33:53.616Z,67.59
2023-05-19T04:36:22.592Z,67.05
2023-05-19T04:38:55.059Z,66.99
2023-05-19T04:41:25.812Z,66.91
2023-05-19T04:43:53.288Z,66.53
2023-05-19T04:46:24.503Z,66.47
2023-05-19T04:48:55.567Z,67.01
2023-05-19T04:51:30.292Z,67.48
2023-05-19T04:54:01.735Z,67.86
2023-05-19T04:56:29.072Z,68.18
2023-05-19T04:58:57.257Z,68.81
2023-05-19T05:01:26.590Z,69.40
2023-05-19T05:03:56.153Z,70.04
2023-05-19T05:06:23.427Z,70.86
2023-05-19T05:08:51.520Z,71.36
2023-05-19T05:11:19.139Z,70.96
2023-05-19T05:13:47.414Z,71.14
2023-05-19T05:16:15.456Z,71.67
2023-05-19T05:18:44.854Z,71.03
2023-05-19T05:21:13.156Z,70.96
2023-05-19T05:23:41.181Z,72.60
2023-05-19T05:26:19.263Z,72.95
2023-05-19T05:28:49.554Z,73.42
2023-05-19T05:31:17.415Z,73.60
2023-05-19T05:33:45.669Z,74.86
2023-05-19T05:36:14.980Z,75.45
2023-05-19T05:38:42.322Z,75.81
2023-05-19T05:41:09.595Z,75.41
2023-05-19T05:43:37.882Z,75.72
2023-05-19T05:46:05.380Z,76.47
2023-05-19T05:48:32.782Z,76.78
2023-05-19T05:51:00.887Z,77.97
2023-05-19T05:53:37.251Z,78.21
2023-05-19T05:56:05.197Z,78.30
2023-05-19T05:58:40.930Z,77.75
2023-05-19T06:01:11.757Z,77.28
2023-05-19T06:03:41.299Z,77.86
2023-05-19T06:06:11.224Z,77.08
2023-05-19T06:08:39.565Z,78.09
2023-05-19T06:11:09.632Z,78.17
2023-05-19T06:13:41.543Z,78.18
2023-05-19T06:16:12.659Z,77.73
2023-05-19T06:18:43.960Z,78.83
2023-05-19T06:21:13.599Z,78.34
2023-05-19T06:23:42.204Z,78.68
2023-05-19T06:26:11.146Z,79.08
2023-05-19T06:28:38.434Z,78.72
2023-05-19T06:31:06.261Z,78.57
2023-05-19T06:33:42.991Z,78.87
2023-05-19T06:36:10.848Z,79.24
2023-05-19T06:38:40.133Z,79.53
2023-05-19T06:41:07.468Z,80.00
2023-05-19T06:43:35.023Z,81.08
2023-05-19T06:46:05.177Z,80.10
2023-05-19T06:48:33.728Z,80.38
2023-05-19T06:51:00.975Z,80.95
2023-05-19T06:53:28.141Z,81.05
2023-05-19T06:55:59.802Z,80.07
2023-05-19T06:58:31.399Z,80.68
2023-05-19T07:00:59.167Z,80.96
2023-05-19T07:03:31.406Z,80.52
2023-05-19T07:05:59.709Z,80.68
2023-05-19T07:08:28.555Z,80.35
2023-05-19T07:10:56.496Z,80.18
2023-05-19T07:13:25.933Z,80.55
2023-05-19T07:15:58.008Z,79.49
2023-05-19T07:18:30.288Z,79.42
2023-05-19T07:20:58.552Z,78.90
2023-05-19T07:23:25.879Z,78.28
2023-05-19T07:25:56.865Z,77.21
2023-05-19T07:28:24.355Z,77.03
2023-05-19T07:30:52.165Z,77.34
2023-05-19T07:33:19.349Z,77.66
2023-05-19T07:35:46.577Z,77.07
2023-05-19T07:38:13.763Z,77.27
2023-05-19T07:40:40.922Z,76.46
2023-05-19T07:43:07.999Z,75.86
2023-05-19T07:45:35.200Z,74.68
2023-05-19T07:48:02.468Z,73.43
2023-05-19T07:50:29.635Z,72.48
2023-05-19T07:52:56.824Z,71.76
2023-05-19T07:55:23.865Z,71.17
2023-05-19T07:57:51.122Z,70.61
2023-05-19T08:00:18.495Z,70.54
2023-05-19T08:02:45.897Z,69.75
2023-05-19T08:05:13.179Z,68.10
2023-05-19T08:07:40.337Z,66.89
2023-05-19T08:10:07.992Z,65.15
2023-05-19T08:12:34.995Z,63.79
2023-05-19T08:15:02.218Z,63.49
2023-05-19T08:17:32.059Z,61.85
2023-05-19T08:20:00.477Z,60.25
2023-05-19T08:22:28.235Z,60.03
2023-05-19T08:24:55.244Z,58.86
2023-05-19T08:27:22.595Z,59.02
2023-05-19T08:29:49.844Z,58.22
2023-05-19T08:32:17.555Z,58.18
2023-05-19T08:34:44.765Z,56.97
2023-05-19T08:37:12.078Z,55.29
2023-05-19T08:39:39.293Z,55.42
2023-05-19T08:42:10.281Z,56.21
2023-05-19T08:44:40.166Z,56.73
2023-05-19T08:47:12.936Z,56.85
2023-05-19T08:49:45.754Z,58.13
2023-05-19T08:52:35.653Z,59.53
2023-05-19T08:55:09.853Z,59.35
2023-05-19T08:57:38.467Z,59.17
2023-05-19T09:00:11.317Z,59.10
2023-05-19T09:02:50.425Z,58.29
2023-05-19T09:05:27.208Z,56.67
2023-05-19T09:07:55.268Z,55.91
2023-05-19T09:10:22.419Z,54.59
2023-05-19T09:12:49.955Z,52.59
2023-05-19T09:15:21.110Z,50.13
2023-05-19T09:17:48.626Z,47.86
2023-05-19T09:20:17.271Z,47.23
2023-05-19T09:22:47.948Z,46.76
2023-05-19T09:25:19.538Z,44.84
2023-05-19T09:27:48.777Z,43.88
2023-05-19T09:30:17.765Z,42.52
2023-05-19T09:32:45.656Z,40.80
2023-05-19T09:35:13.961Z,39.37
2023-05-19T09:37:41.638Z,37.41
2023-05-19T09:40:11.901Z,36.14
2023-05-19T09:42:41.396Z,35.89
2023-05-19T09:45:09.484Z,35.95
2023-05-19T09:47:41.543Z,34.62
2023-05-19T09:50:12.207Z,33.61
2023-05-19T09:52:40.944Z,33.71
2023-05-19T09:55:13.341Z,32.48
2023-05-19T09:57:40.921Z,31.43
2023-05-19T10:00:17.574Z,29.96
2023-05-19T10:02:46.830Z,30.28
2023-05-19T10:05:17.641Z,30.02
2023-05-19T10:07:45.986Z,29.68
2023-05-19T10:10:16.510Z,29.41
2023-05-19T10:12:43.937Z,28.79
2023-05-19T10:15:12.963Z,29.27
2023-05-19T10:17:41.505Z,28.77
2023-05-19T10:20:16.826Z,28.13
2023-05-19T10:22:46.227Z,27.17
2023-05-19T10:25:15.414Z,26.98
2023-05-19T10:27:51.433Z,26.89
2023-05-19T10:30:27.192Z,27.41
2023-05-19T10:32:57.446Z,28.15
2023-05-19T10:35:43.427Z,28.29
2023-05-19T10:39:03.045Z,28.02
2023-05-19T10:42:02.102Z,27.75
2023-05-19T10:44:38.260Z,27.52
2023-05-19T10:47:07.693Z,28.01
2023-05-19T10:49:36.871Z,28.09
2023-05-19T10:52:04.436Z,28.39
2023-05-19T10:54:49.891Z,28.29
2023-05-19T10:57:18.267Z,28.25
2023-05-19T10:59:45.637Z,28.67
2023-05-19T11:02:39.980Z,28.32
2023-05-19T11:05:09.610Z,27.93
2023-05-19T11:07:36.986Z,27.63
2023-05-19T11:10:07.856Z,27.89
2023-05-19T11:12:46.122Z,28.52
2023-05-19T11:15:16.791Z,28.54
2023-05-19T11:17:48.984Z,28.68
2023-05-19T11:20:30.088Z,28.04
2023-05-19T11:23:07.106Z,28.07
2023-05-19T11:25:48.492Z,28.26
2023-05-19T11:28:19.644Z,28.33
2023-05-19T11:30:52.336Z,28.54
2023-05-19T11:33:21.670Z,28.40
2023-05-19T11:35:51.297Z,27.83
2023-05-19T11:38:23.778Z,28.00
2023-05-19T11:40:53.889Z,27.60
2023-05-19T11:43:25.011Z,27.40
2023-05-19T11:45:54.673Z,27.10
2023-05-19T11:48:22.620Z,26.77
2023-05-19T11:50:50.409Z,26.31
2023-05-19T11:53:19.884Z,25.84
2023-05-19T11:55:48.969Z,25.44
2023-05-19T11:58:17.073Z,25.92
2023-05-19T12:00:48.309Z,26.17
2023-05-19T12:03:16.194Z,26.99
2023-05-19T12:05:49.207Z,27.11
2023-05-19T12:08:18.926Z,27.12
2023-05-19T12:10:50.892Z,27.78
2023-05-19T12:13:17.996Z,28.06
2023-05-19T12:15:45.110Z,27.94
2023-05-19T12:18:12.400Z,27.92
2023-05-19T12:20:39.770Z,27.98
2023-05-19T12:23:07.736Z,28.30
2023-05-19T12:25:35.534Z,27.36
2023-05-19T12:28:05.692Z,26.79
2023-05-19T12:30:34.766Z,26.45
2023-05-19T12:33:03.329Z,26.26
2023-05-19T12:35:36.514Z,26.39
2023-05-19T12:38:05.538Z,26.57
2023-05-19T12:40:35.553Z,26.80
2023-05-19T12:43:03.501Z,27.05
2023-05-19T12:45:35.570Z,26.76
2023-05-19T12:48:06.839Z,26.73
2023-05-19T12:50:34.723Z,26.48
2023-05-19T12:53:02.200Z,26.68
2023-05-19T12:55:30.163Z,26.49
2023-05-19T12:57:58.692Z,26.36
2023-05-19T13:00:29.203Z,26.47
2023-05-19T13:03:00.108Z,27.20
2023-05-19T13:05:32.145Z,27.27
2023-05-19T13:08:06.893Z,27.02
2023-05-19T13:10:36.306Z,26.31
2023-05-19T13:13:04.571Z,25.77
2023-05-19T13:15:36.531Z,25.90
2023-05-19T13:18:14.473Z,25.75
2023-05-19T13:20:43.430Z,25.14
2023-05-19T13:23:11.945Z,25.54
2023-05-19T13:25:39.328Z,25.45
2023-05-19T13:28:06.897Z,25.91
2023-05-19T13:30:35.401Z,26.07
2023-05-19T13:33:03.342Z,25.85
2023-05-19T13:35:37.062Z,25.83
2023-05-19T13:38:06.099Z,25.89
2023-05-19T13:40:34.782Z,25.81
2023-05-19T13:43:03.660Z,26.19
2023-05-19T13:45:31.014Z,26.21
2023-05-19T13:47:58.477Z,25.97
2023-05-19T13:50:25.853Z,26.23
2023-05-19T13:52:53.412Z,26.06
2023-05-19T13:55:20.753Z,25.95
2023-05-19T13:57:47.844Z,26.06
2023-05-19T14:00:15.526Z,26.12
2023-05-19T14:02:43.365Z,26.62
2023-05-19T14:05:10.687Z,27.44
2023-05-19T14:07:38.496Z,27.68
2023-05-19T14:10:07.022Z,27.75
2023-05-19T14:12:49.564Z,28.31
2023-05-19T14:15:23.873Z,28.94
2023-05-19T14:17:51.158Z,28.96
2023-05-19T14:20:18.303Z,28.85
2023-05-19T14:22:45.374Z,28.93
2023-05-19T14:25:12.480Z,28.43
2023-05-19T14:27:42.588Z,28.60
2023-05-19T14:30:09.842Z,29.21
2023-05-19T14:32:36.949Z,28.95
2023-05-19T14:35:04.493Z,29.26
2023-05-19T14:37:32.441Z,29.32
2023-05-19T14:40:00.207Z,29.34
2023-05-19T14:42:27.369Z,29.64
2023-05-19T14:44:54.538Z,29.67
2023-05-19T14:47:21.782Z,29.72
2023-05-19T14:49:49.078Z,29.41
2023-05-19T14:52:16.533Z,29.62
2023-05-19T14:54:43.644Z,29.67
2023-05-19T14:57:11.105Z,29.51
2023-05-19T14:59:38.851Z,29.54
2023-05-19T15:02:06.548Z,29.51
2023-05-19T15:04:33.773Z,29.50
2023-05-19T15:09:31.246Z,29.72
2023-05-19T15:12:01.343Z,30.02
2023-05-19T15:14:30.758Z,29.55
2023-05-19T15:16:58.750Z,29.48
2023-05-19T15:19:26.249Z,29.51
2023-05-19T15:21:53.723Z,30.06
2023-05-19T15:24:21.038Z,30.12
2023-05-19T15:26:48.154Z,29.86
2023-05-19T15:29:15.312Z,30.00
2023-05-19T15:31:42.619Z,30.18
2023-05-19T15:34:09.912Z,30.20
2023-05-19T15:36:37.181Z,29.98
2023-05-19T15:39:05.292Z,30.41
2023-05-19T15:41:32.498Z,30.03
2023-05-19T15:44:03.028Z,29.98
2023-05-19T15:46:30.784Z,30.13
2023-05-19T15:48:58.204Z,30.37
2023-05-19T15:51:25.914Z,30.71
2023-05-19T15:53:54.355Z,31.16
2023-05-19T15:56:21.764Z,31.28
2023-05-19T15:58:49.253Z,31.50
2023-05-19T16:01:16.908Z,31.61
2023-05-19T16:03:45.377Z,31.60
2023-05-19T16:06:12.839Z,31.70
2023-05-19T16:08:40.144Z,31.99
2023-05-19T16:11:07.361Z,32.27
2023-05-19T16:13:34.823Z,32.50
2023-05-19T16:16:02.298Z,32.70
2023-05-19T16:18:29.761Z,32.66
2023-05-19T16:20:57.021Z,32.54
2023-05-19T16:23:25.001Z,32.46
2023-05-19T16:25:52.402Z,32.85
2023-05-19T16:28:19.684Z,32.91
2023-05-19T16:30:47.170Z,32.79
2023-05-19T16:33:14.219Z,32.83
2023-05-19T16:35:41.353Z,33.07
2023-05-19T16:38:09.085Z,32.96
2023-05-19T16:40:36.503Z,33.25
2023-05-19T16:43:03.879Z,33.21
2023-05-19T16:45:31.329Z,33.43
2023-05-19T16:47:58.450Z,33.72
2023-05-19T16:50:28.779Z,33.81
2023-05-19T16:52:55.980Z,33.97
2023-05-19T16:55:23.116Z,33.94
2023-05-19T16:57:50.147Z,33.78
2023-05-19T17:00:17.576Z,32.39
2023-05-19T17:02:44.960Z,31.55
2023-05-19T17:05:12.159Z,32.25
2023-05-19T17:07:39.236Z,32.56
2023-05-19T17:10:06.728Z,32.90
2023-05-19T17:12:33.965Z,33.32
2023-05-19T17:15:02.308Z,33.50
2023-05-19T17:17:32.037Z,33.40
2023-05-19T17:19:59.995Z,33.50
2023-05-19T17:22:28.260Z,33.34
2023-05-19T17:24:57.688Z,33.46
2023-05-19T17:27:24.782Z,32.96
2023-05-19T17:29:52.090Z,33.34
2023-05-19T17:32:22.755Z,33.75
2023-05-19T17:34:50.073Z,33.61
2023-05-19T17:37:19.269Z,33.79
2023-05-19T17:39:46.376Z,33.41
2023-05-19T17:42:13.538Z,33.93
2023-05-19T17:44:41.443Z,34.45
2023-05-19T17:47:08.521Z,35.47
2023-05-19T17:49:35.668Z,36.25
2023-05-19T17:52:03.002Z,36.54
2023-05-19T17:54:30.403Z,37.29
2023-05-19T17:56:59.207Z,37.31
2023-05-19T17:59:26.441Z,37.98
2023-05-19T18:01:54.027Z,38.60
2023-05-19T18:04:21.536Z,38.56
2023-05-19T18:06:52.384Z,39.90
2023-05-19T18:09:20.282Z,39.91
2023-05-19T18:11:47.804Z,40.49
2023-05-19T18:14:15.023Z,40.48
2023-05-19T18:16:42.282Z,40.90
2023-05-19T18:19:09.617Z,41.16
2023-05-19T18:21:36.786Z,41.22
2023-05-19T18:24:04.622Z,42.29
2023-05-19T18:26:33.236Z,41.91
2023-05-19T18:29:02.963Z,42.73
2023-05-19T18:31:30.106Z,42.96
2023-05-19T18:33:57.310Z,43.39
2023-05-19T18:36:24.322Z,43.58
2023-05-19T18:38:51.480Z,43.81
2023-05-19T18:41:18.676Z,43.91
2023-05-19T18:43:45.850Z,44.33
2023-05-19T18:46:13.721Z,45.00
2023-05-19T18:48:40.944Z,44.88
2023-05-19T18:51:09.070Z,45.08
2023-05-19T18:53:37.640Z,45.15
2023-05-19T18:56:05.130Z,45.88
2023-05-19T18:58:32.758Z,45.42
2023-05-19T19:00:59.932Z,46.08
2023-05-19T19:03:28.781Z,46.20
2023-05-19T19:05:57.335Z,46.31
2023-05-19T19:08:24.721Z,46.62
2023-05-19T19:10:52.233Z,46.92
2023-05-19T19:13:19.466Z,47.49
2023-05-19T19:15:46.659Z,47.53
2023-05-19T19:18:13.915Z,47.71
2023-05-19T19:20:41.194Z,47.98
2023-05-19T19:23:08.401Z,48.02
2023-05-19T19:25:35.800Z,47.97
2023-05-19T19:28:03.663Z,48.08
2023-05-19T19:30:30.769Z,48.22
2023-05-19T19:32:59.613Z,48.20
2023-05-19T19:35:26.895Z,48.50
2023-05-19T19:37:54.053Z,48.90
2023-05-19T19:40:21.230Z,48.96
2023-05-19T19:42:48.453Z,49.24
2023-05-19T19:45:15.910Z,49.72
2023-05-19T19:47:43.997Z,49.18
2023-05-19T19:50:11.694Z,49.55
2023-05-19T19:52:39.133Z,49.50
2023-05-19T19:55:06.626Z,49.42
2023-05-19T19:57:34.418Z,49.29
2023-05-19T20:00:08.490Z,49.45
2023-05-19T20:02:45.520Z,50.11
2023-05-19T20:05:19.038Z,50.62
2023-05-19T20:07:46.167Z,50.55
2023-05-19T20:10:13.415Z,51.43
2023-05-19T20:12:40.663Z,51.55
2023-05-19T20:15:08.455Z,51.01
2023-05-19T20:17:35.864Z,51.23
2023-05-19T20:20:08.104Z,51.91
2023-05-19T20:22:35.384Z,51.94
2023-05-19T20:25:02.617Z,51.71
2023-05-19T20:27:31.785Z,51.51
2023-05-19T20:29:59.019Z,51.90
2023-05-19T20:32:26.358Z,52.50
2023-05-19T20:34:53.462Z,52.42
2023-05-19T20:37:22.309Z,51.93
2023-05-19T20:39:49.624Z,52.49
2023-05-19T20:42:16.790Z,52.77
2023-05-19T20:44:44.111Z,52.55
2023-05-19T20:47:11.708Z,52.22
2023-05-19T20:49:39.048Z,53.11
2023-05-19T20:52:06.432Z,52.45
2023-05-19T20:54:33.750Z,53.14
2023-05-19T20:57:01.444Z,53.29
2023-05-19T20:59:28.599Z,53.10
2023-05-19T21:01:55.824Z,52.83
2023-05-19T21:04:22.974Z,52.86
2023-05-19T21:06:50.222Z,52.64
2023-05-19T21:09:17.454Z,53.12
2023-05-19T21:11:45.135Z,53.43
2023-05-19T21:14:12.268Z,53.58
2023-05-19T21:16:39.606Z,54.02
2023-05-19T21:19:07.153Z,53.51
2023-05-19T21:21:34.369Z,54.44
2023-05-19T21:24:01.426Z,54.31
2023-05-19T21:26:28.543Z,54.69
2023-05-19T21:28:55.730Z,54.34
2023-05-19T21:31:23.076Z,54.24
2023-05-19T21:33:50.367Z,53.84
2023-05-19T21:36:18.417Z,54.17
2023-05-19T21:38:45.583Z,54.39
2023-05-19T21:41:12.649Z,54.19
2023-05-19T21:43:41.360Z,54.71
2023-05-19T21:46:08.463Z,55.00
2023-05-19T21:48:35.858Z,54.73
2023-05-19T21:51:03.180Z,55.01
2023-05-19T21:53:31.534Z,55.45
2023-05-19T21:55:59.936Z,55.66
2023-05-19T21:58:27.013Z,56.03
2023-05-19T22:00:57.228Z,56.34
2023-05-19T22:03:24.456Z,56.00
2023-05-19T22:05:53.055Z,56.38
2023-05-19T22:08:20.822Z,56.33
2023-05-19T22:10:52.280Z,56.06
2023-05-19T22:13:20.474Z,56.60
2023-05-19T22:15:47.763Z,56.78
2023-05-19T22:18:14.888Z,56.48
2023-05-19T22:20:42.109Z,56.68
2023-05-19T22:23:09.401Z,57.29
2023-05-19T22:25:36.644Z,57.47
2023-05-19T22:28:05.737Z,57.18
2023-05-19T22:30:32.941Z,57.34
2023-05-19T22:33:00.301Z,57.37
2023-05-19T22:35:27.470Z,57.68
2023-05-19T22:37:55.808Z,57.51
2023-05-19T22:40:22.896Z,57.40
2023-05-19T22:42:49.961Z,58.17
2023-05-19T22:45:17.198Z,58.17
2023-05-19T22:47:44.299Z,57.89
2023-05-19T22:50:12.398Z,57.87
2023-05-19T22:52:39.529Z,57.85
2023-05-19T22:55:07.462Z,58.00
2023-05-19T22:57:34.626Z,58.28
2023-05-19T23:00:01.749Z,58.46
2023-05-19T23:02:33.562Z,58.04
2023-05-19T23:05:00.956Z,58.42
2023-05-19T23:07:28.118Z,58.64
2023-05-19T23:09:55.332Z,58.67
2023-05-19T23:12:22.505Z,58.70
2023-05-19T23:14:49.628Z,58.98
2023-05-19T23:17:16.846Z,59.25
2023-05-19T23:19:43.929Z,59.30
2023-05-19T23:22:11.293Z,59.35
2023-05-19T23:24:38.916Z,59.59
2023-05-19T23:27:06.263Z,59.19
2023-05-19T23:29:33.341Z,59.22
2023-05-19T23:32:00.407Z,59.36
2023-05-19T23:34:27.483Z,59.17
2023-05-19T23:36:54.600Z,59.19
2023-05-19T23:39:22.236Z,58.96
2023-05-19T23:41:49.314Z,58.99
2023-05-19T23:44:16.451Z,58.94
2023-05-19T23:46:43.709Z,59.04
2023-05-19T23:49:10.931Z,58.43
2023-05-19T23:51:38.111Z,57.80
2023-05-19T23:54:05.225Z,57.67
2023-05-19T23:56:32.220Z,56.77
2023-05-19T23:58:59.414Z,56.04
